x

South Kodiak - 310nm Ssw Of Kodiak, Ak (46066) Wave Buoy

3:50am - Thu 8th Dec 2016 All times are UTC.

  • Sig Wave height 7.5ft
  • Swell Direction
  • Peak Period 8s
  • Average Period 7s
  • Wind
    18mph, 22mph gusts
  • Sea Temp 43°f
  • Air Temp 36°f
  • Sea Pressure 1011.6mb

More Historic Weather Station data

Upgrade to MSW Pro to gain access to the past 30 days of data for over 8000 Wavebouys and Weather Stations around the globe.

Join Pro

Comparision Forecast

View Surf forecast
   
Thu 12/08 3:50am 7.5ft 8s 7s 18 22 mph 1011.6mb 43f 36f
2:50am 7ft 9s 6s 16 20 mph 1012mb 43f 36f
1:50am 9ft 9s 7s 18 22 mph 1012.3mb 42f 36f
12:50am 8ft 8s 6s 18 20 mph 1012.7mb 42f 35f
Wed 12/07 11:50pm 9ft 8s 6s 16 20 mph 1013.1mb 42f 36f
10:50pm 9ft 7s 7s 20 22 mph 1013.6mb 42f 35f
9:50pm 8ft 7s 6s 20 25 mph 1014.3mb 42f 34f
8:50pm 8ft 8s 6s 20 25 mph 1014.9mb 42f 35f
7:50pm 8ft 8s 6s 18 20 mph 1015.1mb 42f 34f
6:50pm 8.5ft 8s 7s 22 27 mph 1015.2mb 42f 35f
4:50pm 9ft 8s 7s 20 25 mph 1015.5mb 43f 34f
3:50pm 7.5ft 8s 6s 25 29 mph 1015.7mb 43f 35f
2:50pm 7ft 10s 7s 20 25 mph 1016.4mb 43f 37f
1:50pm 7.5ft 10s 7s 20 22 mph 1017mb 43f 37f
12:50pm 8ft 9s 7s 20 22 mph 1017.6mb 43f 36f
11:50am 8ft 8s  -  20 25 mph 1018mb 43f 37f
9:50am 8ft 13s 7s 13 16 mph 1019mb 42f 38f
8:50am 8ft 14s 7s 13 16 mph 1019.6mb 43f 37f
7:50am 7.5ft 8s 6s 13 18 mph 1019.6mb 42f 39f
6:50am 8ft 8s 6s 16 20 mph 1019.4mb 42f 39f
5:50am 7.5ft 7s 6s 13 18 mph 1019.3mb 42f 39f
4:50am 8ft 11s 7s 18 20 mph 1019.2mb 42f 39f
3:50am 8ft 14s 7s 20 22 mph 1019.4mb 42f 40f
2:50am 8ft 8s 7s 22 27 mph 1019.7mb 43f 40f
1:50am 7.5ft 12s 7s 18 22 mph 1019.9mb 43f 41f
12:50am 7.5ft 13s 7s 18 20 mph 1020mb 43f 41f
Tue 12/06 11:50pm 7.5ft 12s 7s 20 25 mph 1020.4mb 43f 40f
10:50pm 8ft 8s 7s 18 20 mph 1021mb 43f 42f
9:50pm 8ft 13s 8s 18 20 mph 1021.6mb 43f 41f
8:50pm 8.5ft 15s 8s 18 20 mph 1022mb 43f 42f
7:50pm 8.5ft 11s 7s 16 18 mph 1022.2mb 43f 41f
6:50pm 8ft 11s 7s 18 20 mph 1022.3mb 43f 41f
5:50pm 9ft 15s 7s 18 22 mph 1022.1mb 43f 41f
4:50pm 9ft 11s 7s 18 22 mph 1022.2mb 42f 41f
3:50pm 9.5ft 11s 7s 18 22 mph 1022.3mb 42f 41f
2:50pm 10ft 11s 7s 20 22 mph 1022.6mb 42f 41f
1:50pm 10ft 12s 7s 18 22 mph 1022.8mb 42f 41f
12:50pm 10ft 12s 7s 22 27 mph 1023.1mb 42f 42f
11:50am 10ft 12s 7s 20 25 mph 1023.5mb 42f 41f
10:50am 10ft 13s 7s 18 25 mph 1024mb 43f 40f
9:50am 9.5ft 13s 7s 22 29 mph 1024.2mb 43f 42f
8:50am 10ft 14s 7s 20 25 mph 1024.5mb 43f 41f
7:50am 10.5ft 13s 8s 20 27 mph 1024.6mb 43f 42f
6:50am 11ft 11s 8s 18 25 mph 1024.7mb 43f 40f
5:50am 11ft 12s 8s 22 27 mph 1024.8mb 43f 42f
4:50am 12.5ft 13s 8s 22 27 mph 1024.8mb 43f 42f
3:50am 12ft 12s 7s 20 25 mph 1024.9mb 42f 41f
2:50am 13ft 14s 8s 25 29 mph 1024.7mb 42f 42f
1:50am 13.5ft 12s 8s 22 27 mph 1024.6mb 42f 42f
12:50am 14ft 12s 8s 22 29 mph 1024.7mb 42f 42f
Mon 12/05 11:50pm 14.5ft 11s 8s 22 29 mph 1024.9mb 42f 42f
10:50pm 13ft 12s 8s 22 29 mph 1025.2mb 42f 42f
9:50pm 13.5ft 14s 8s 22 25 mph 1025.5mb 42f 42f
8:50pm 13ft 13s 8s 25 29 mph 1025.7mb 42f 41f
7:50pm 11ft 13s 7s 27 31 mph 1025.8mb 42f 41f
6:50pm 10.5ft 15s 8s 27 31 mph 1026mb 42f 41f
5:50pm 10ft 15s 7s 27 34 mph 1026.1mb 43f 41f
4:50pm 10ft 13s 7s 25 29 mph 1026.5mb 43f 40f
3:50pm 9ft 11s 7s 25 34 mph 1027mb 43f 40f
2:50pm 8.5ft 14s 7s 22 31 mph 1027.7mb 42f 40f
1:50pm 7.5ft 11s 7s 20 22 mph 1028.5mb 42f 40f
12:50pm 7ft 14s 6s 20 25 mph 1029.3mb 42f 40f
11:50am 6.5ft 12s 6s 18 22 mph 1030.1mb 43f 39f
10:50am 6.5ft 7s 6s 22 27 mph 1030.3mb 42f 40f
9:50am 6ft 7s 6s 16 18 mph 1030.9mb 42f 38f
8:50am 7ft 8s 6s 16 20 mph 1031.2mb 42f 40f
7:50am 6.5ft 8s 6s 18 22 mph 1031.3mb 42f 41f
6:50am 6.5ft 9s 6s 13 16 mph 1031.6mb 42f 40f
5:50am 7ft 9s 6s 16 18 mph 1031.6mb 42f 40f
4:50am 6ft 8s 6s 20 25 mph 1031.3mb 42f 40f
3:50am 7ft 9s 7s 11 16 mph 1031.5mb 42f 40f
2:50am 7ft 10s 6s 20 27 mph 1031.6mb 42f 39f
1:50am 8ft 8s 7s 16 20 mph 1031.5mb 43f 41f
12:50am 7.5ft 10s 6s 18 22 mph 1031.2mb 43f 41f
Sun 12/04 11:50pm 8ft 9s 6s 18 22 mph 1031.3mb 42f 41f
10:50pm 8ft 8s 6s 18 22 mph 1031.6mb 43f 42f
9:50pm 8ft 8s 6s 20 22 mph 1031.8mb 42f 41f
8:50pm 10ft 8s 7s 16 20 mph 1032.3mb 42f 39f
7:50pm 10.5ft 9s 7s 18 22 mph 1032mb 42f 40f
6:50pm 9.5ft 8s 7s 22 29 mph 1031.7mb 42f 40f
4:50pm 9.5ft 10s 7s 16 20 mph 1031.6mb 42f 40f
3:50pm 10ft 10s 7s 20 22 mph 1031.3mb 42f 40f
2:50pm 10ft 10s 7s 22 27 mph 1031.2mb 43f 40f
1:50pm 10.5ft 9s 7s 20 25 mph 1031mb 42f 40f
12:50pm 10ft 9s 7s 22 27 mph 1031.1mb 42f 39f
11:50am 11ft 10s 7s 22 27 mph 1031.1mb 42f 39f
10:50am 11ft 10s 7s 25 29 mph 1030.8mb 42f 39f
9:50am 12ft 10s 7s 25 29 mph 1030.6mb 43f 39f
8:50am 12ft 9s 7s 25 29 mph 1030.4mb 43f 39f
7:50am 12.5ft 8s 7s 25 31 mph 1030.3mb 42f 39f
6:50am 12ft 9s 7s 27 34 mph 1030mb 42f 39f